sensor_id;sensor_type;location;lat;lon;timestamp;P1;durP1;ratioP1;P2;durP2;ratioP2
21503;SDS011;10913;51.992;9.228;2023-04-06T00:00:47;6.13;;;5.53;;
21503;SDS011;10913;51.992;9.228;2023-04-06T00:03:13;7.13;;;5.47;;
21503;SDS011;10913;51.992;9.228;2023-04-06T00:05:39;6.50;;;5.80;;
21503;SDS011;10913;51.992;9.228;2023-04-06T00:08:05;6.25;;;5.60;;
21503;SDS011;10913;51.992;9.228;2023-04-06T00:10:30;5.82;;;5.22;;
21503;SDS011;10913;51.992;9.228;2023-04-06T00:12:57;6.13;;;5.50;;
21503;SDS011;10913;51.992;9.228;2023-04-06T00:15:24;6.28;;;5.68;;
21503;SDS011;10913;51.992;9.228;2023-04-06T00:17:49;6.32;;;5.70;;
21503;SDS011;10913;51.992;9.228;2023-04-06T00:20:15;8.40;;;5.80;;
21503;SDS011;10913;51.992;9.228;2023-04-06T00:22:41;6.38;;;5.45;;
21503;SDS011;10913;51.992;9.228;2023-04-06T00:25:07;6.47;;;5.88;;
21503;SDS011;10913;51.992;9.228;2023-04-06T00:27:33;7.60;;;5.70;;
21503;SDS011;10913;51.992;9.228;2023-04-06T00:29:58;7.13;;;5.97;;
21503;SDS011;10913;51.992;9.228;2023-04-06T00:32:24;6.25;;;5.65;;
21503;SDS011;10913;51.992;9.228;2023-04-06T00:34:49;6.55;;;5.78;;
21503;SDS011;10913;51.992;9.228;2023-04-06T00:37:15;8.43;;;6.05;;
21503;SDS011;10913;51.992;9.228;2023-04-06T00:39:40;6.63;;;5.90;;
21503;SDS011;10913;51.992;9.228;2023-04-06T00:42:12;6.95;;;5.93;;
21503;SDS011;10913;51.992;9.228;2023-04-06T00:44:39;6.35;;;5.75;;
21503;SDS011;10913;51.992;9.228;2023-04-06T00:47:05;7.57;;;6.10;;
21503;SDS011;10913;51.992;9.228;2023-04-06T00:49:31;6.38;;;5.57;;
21503;SDS011;10913;51.992;9.228;2023-04-06T00:51:57;6.90;;;6.10;;
21503;SDS011;10913;51.992;9.228;2023-04-06T00:54:26;7.80;;;5.85;;
21503;SDS011;10913;51.992;9.228;2023-04-06T00:56:52;7.63;;;6.10;;
21503;SDS011;10913;51.992;9.228;2023-04-06T00:59:17;6.57;;;5.80;;
21503;SDS011;10913;51.992;9.228;2023-04-06T01:01:43;6.75;;;6.05;;
21503;SDS011;10913;51.992;9.228;2023-04-06T01:04:08;7.47;;;6.22;;
21503;SDS011;10913;51.992;9.228;2023-04-06T01:06:36;7.20;;;6.05;;
21503;SDS011;10913;51.992;9.228;2023-04-06T01:09:02;7.93;;;6.07;;
21503;SDS011;10913;51.992;9.228;2023-04-06T01:11:27;6.90;;;6.20;;
21503;SDS011;10913;51.992;9.228;2023-04-06T01:13:52;7.90;;;6.10;;
21503;SDS011;10913;51.992;9.228;2023-04-06T01:16:18;7.28;;;6.18;;
21503;SDS011;10913;51.992;9.228;2023-04-06T01:18:43;9.70;;;6.57;;
21503;SDS011;10913;51.992;9.228;2023-04-06T01:21:09;7.43;;;6.72;;
21503;SDS011;10913;51.992;9.228;2023-04-06T01:23:41;7.03;;;6.30;;
21503;SDS011;10913;51.992;9.228;2023-04-06T01:26:08;7.20;;;6.50;;
21503;SDS011;10913;51.992;9.228;2023-04-06T01:28:33;7.07;;;6.10;;
21503;SDS011;10913;51.992;9.228;2023-04-06T01:30:59;6.93;;;6.07;;
21503;SDS011;10913;51.992;9.228;2023-04-06T01:33:27;7.15;;;6.15;;
21503;SDS011;10913;51.992;9.228;2023-04-06T01:35:52;7.50;;;6.47;;
21503;SDS011;10913;51.992;9.228;2023-04-06T01:38:18;7.30;;;6.30;;
21503;SDS011;10913;51.992;9.228;2023-04-06T01:40:43;7.28;;;6.57;;
21503;SDS011;10913;51.992;9.228;2023-04-06T01:43:09;7.25;;;6.22;;
21503;SDS011;10913;51.992;9.228;2023-04-06T01:45:34;7.55;;;5.85;;
21503;SDS011;10913;51.992;9.228;2023-04-06T01:48:00;7.20;;;6.43;;
21503;SDS011;10913;51.992;9.228;2023-04-06T01:50:25;6.75;;;5.97;;
21503;SDS011;10913;51.992;9.228;2023-04-06T01:52:50;7.18;;;6.47;;
21503;SDS011;10913;51.992;9.228;2023-04-06T01:55:16;7.30;;;6.25;;
21503;SDS011;10913;51.992;9.228;2023-04-06T01:57:41;7.35;;;6.00;;
21503;SDS011;10913;51.992;9.228;2023-04-06T02:00:06;7.28;;;6.57;;
21503;SDS011;10913;51.992;9.228;2023-04-06T02:02:32;7.15;;;6.38;;
21503;SDS011;10913;51.992;9.228;2023-04-06T02:04:58;7.05;;;6.35;;
21503;SDS011;10913;51.992;9.228;2023-04-06T02:07:23;6.57;;;5.70;;
21503;SDS011;10913;51.992;9.228;2023-04-06T02:09:48;8.15;;;6.07;;
21503;SDS011;10913;51.992;9.228;2023-04-06T02:12:15;7.00;;;6.30;;
21503;SDS011;10913;51.992;9.228;2023-04-06T02:14:41;6.90;;;6.20;;
21503;SDS011;10913;51.992;9.228;2023-04-06T02:17:06;7.15;;;6.28;;
21503;SDS011;10913;51.992;9.228;2023-04-06T02:19:32;7.72;;;6.95;;
21503;SDS011;10913;51.992;9.228;2023-04-06T02:21:57;7.07;;;6.35;;
21503;SDS011;10913;51.992;9.228;2023-04-06T02:24:23;7.30;;;6.60;;
21503;SDS011;10913;51.992;9.228;2023-04-06T02:26:48;7.78;;;6.60;;
21503;SDS011;10913;51.992;9.228;2023-04-06T02:29:13;9.02;;;6.80;;
21503;SDS011;10913;51.992;9.228;2023-04-06T02:31:39;7.43;;;6.57;;
21503;SDS011;10913;51.992;9.228;2023-04-06T02:34:04;7.50;;;6.68;;
21503;SDS011;10913;51.992;9.228;2023-04-06T02:36:30;9.07;;;7.03;;
21503;SDS011;10913;51.992;9.228;2023-04-06T02:38:55;7.95;;;6.45;;
21503;SDS011;10913;51.992;9.228;2023-04-06T02:41:21;8.85;;;6.85;;
21503;SDS011;10913;51.992;9.228;2023-04-06T02:43:46;6.93;;;6.22;;
21503;SDS011;10913;51.992;9.228;2023-04-06T02:46:12;8.10;;;6.65;;
21503;SDS011;10913;51.992;9.228;2023-04-06T02:48:37;7.68;;;6.25;;
21503;SDS011;10913;51.992;9.228;2023-04-06T02:51:03;7.15;;;6.30;;
21503;SDS011;10913;51.992;9.228;2023-04-06T02:53:28;7.90;;;6.60;;
21503;SDS011;10913;51.992;9.228;2023-04-06T02:55:54;7.68;;;6.88;;
21503;SDS011;10913;51.992;9.228;2023-04-06T02:58:20;7.47;;;6.78;;
21503;SDS011;10913;51.992;9.228;2023-04-06T03:00:46;6.90;;;6.25;;
21503;SDS011;10913;51.992;9.228;2023-04-06T03:03:11;8.15;;;7.32;;
21503;SDS011;10913;51.992;9.228;2023-04-06T03:05:37;7.53;;;6.35;;
21503;SDS011;10913;51.992;9.228;2023-04-06T03:08:02;7.53;;;6.72;;
21503;SDS011;10913;51.992;9.228;2023-04-06T03:10:27;7.45;;;6.65;;
21503;SDS011;10913;51.992;9.228;2023-04-06T03:12:53;8.73;;;6.60;;
21503;SDS011;10913;51.992;9.228;2023-04-06T03:15:18;8.18;;;6.53;;
21503;SDS011;10913;51.992;9.228;2023-04-06T03:17:43;7.93;;;6.60;;
21503;SDS011;10913;51.992;9.228;2023-04-06T03:20:09;8.75;;;7.30;;
21503;SDS011;10913;51.992;9.228;2023-04-06T03:22:35;8.00;;;7.20;;
21503;SDS011;10913;51.992;9.228;2023-04-06T03:25:00;8.70;;;6.80;;
21503;SDS011;10913;51.992;9.228;2023-04-06T03:27:26;8.27;;;7.40;;
21503;SDS011;10913;51.992;9.228;2023-04-06T03:29:51;8.05;;;7.28;;
21503;SDS011;10913;51.992;9.228;2023-04-06T03:32:16;9.68;;;7.90;;
21503;SDS011;10913;51.992;9.228;2023-04-06T03:34:42;9.20;;;7.90;;
21503;SDS011;10913;51.992;9.228;2023-04-06T03:37:07;8.70;;;7.63;;
21503;SDS011;10913;51.992;9.228;2023-04-06T03:39:32;10.10;;;7.75;;
21503;SDS011;10913;51.992;9.228;2023-04-06T03:41:58;10.07;;;7.88;;
21503;SDS011;10913;51.992;9.228;2023-04-06T03:44:23;11.02;;;7.88;;
21503;SDS011;10913;51.992;9.228;2023-04-06T03:46:49;8.93;;;7.53;;
21503;SDS011;10913;51.992;9.228;2023-04-06T03:49:14;8.73;;;7.57;;
21503;SDS011;10913;51.992;9.228;2023-04-06T03:51:40;8.60;;;7.57;;
21503;SDS011;10913;51.992;9.228;2023-04-06T03:54:05;8.00;;;7.20;;
21503;SDS011;10913;51.992;9.228;2023-04-06T03:56:30;8.57;;;7.68;;
21503;SDS011;10913;51.992;9.228;2023-04-06T03:58:56;9.65;;;8.40;;
21503;SDS011;10913;51.992;9.228;2023-04-06T04:01:21;8.90;;;7.97;;
21503;SDS011;10913;51.992;9.228;2023-04-06T04:03:47;10.27;;;8.55;;
21503;SDS011;10913;51.992;9.228;2023-04-06T04:06:12;9.07;;;7.82;;
21503;SDS011;10913;51.992;9.228;2023-04-06T04:08:38;9.48;;;8.18;;
21503;SDS011;10913;51.992;9.228;2023-04-06T04:11:03;10.30;;;8.10;;
21503;SDS011;10913;51.992;9.228;2023-04-06T04:13:28;10.55;;;7.80;;
21503;SDS011;10913;51.992;9.228;2023-04-06T04:15:54;10.63;;;8.23;;
21503;SDS011;10913;51.992;9.228;2023-04-06T04:18:19;10.00;;;8.30;;
21503;SDS011;10913;51.992;9.228;2023-04-06T04:20:45;11.98;;;8.63;;
21503;SDS011;10913;51.992;9.228;2023-04-06T04:23:11;8.98;;;7.85;;
21503;SDS011;10913;51.992;9.228;2023-04-06T04:25:36;9.57;;;8.30;;
21503;SDS011;10913;51.992;9.228;2023-04-06T04:28:02;9.98;;;8.02;;
21503;SDS011;10913;51.992;9.228;2023-04-06T04:30:28;8.95;;;8.05;;
21503;SDS011;10913;51.992;9.228;2023-04-06T04:32:53;10.82;;;8.00;;
21503;SDS011;10913;51.992;9.228;2023-04-06T04:35:19;9.35;;;7.95;;
21503;SDS011;10913;51.992;9.228;2023-04-06T04:37:44;10.10;;;8.68;;
21503;SDS011;10913;51.992;9.228;2023-04-06T04:40:10;9.93;;;8.38;;
21503;SDS011;10913;51.992;9.228;2023-04-06T04:42:36;11.32;;;9.23;;
21503;SDS011;10913;51.992;9.228;2023-04-06T04:45:01;10.38;;;9.02;;
21503;SDS011;10913;51.992;9.228;2023-04-06T04:47:27;10.82;;;8.95;;
21503;SDS011;10913;51.992;9.228;2023-04-06T04:49:55;10.30;;;8.70;;
21503;SDS011;10913;51.992;9.228;2023-04-06T04:52:21;9.48;;;8.10;;
21503;SDS011;10913;51.992;9.228;2023-04-06T04:54:46;9.45;;;8.45;;
21503;SDS011;10913;51.992;9.228;2023-04-06T04:57:12;10.13;;;8.82;;
21503;SDS011;10913;51.992;9.228;2023-04-06T04:59:37;11.85;;;8.70;;
21503;SDS011;10913;51.992;9.228;2023-04-06T05:02:03;9.75;;;8.48;;
21503;SDS011;10913;51.992;9.228;2023-04-06T05:04:28;9.95;;;8.85;;
21503;SDS011;10913;51.992;9.228;2023-04-06T05:07:06;10.73;;;8.40;;
21503;SDS011;10913;51.992;9.228;2023-04-06T05:09:33;10.38;;;8.60;;
21503;SDS011;10913;51.992;9.228;2023-04-06T05:11:59;10.02;;;8.43;;
21503;SDS011;10913;51.992;9.228;2023-04-06T05:14:25;9.70;;;8.30;;
21503;SDS011;10913;51.992;9.228;2023-04-06T05:16:51;9.30;;;8.32;;
21503;SDS011;10913;51.992;9.228;2023-04-06T05:19:17;10.23;;;8.70;;
21503;SDS011;10913;51.992;9.228;2023-04-06T05:21:42;11.18;;;8.85;;
21503;SDS011;10913;51.992;9.228;2023-04-06T05:24:07;9.82;;;8.63;;
21503;SDS011;10913;51.992;9.228;2023-04-06T05:26:33;9.27;;;8.13;;
21503;SDS011;10913;51.992;9.228;2023-04-06T05:28:59;11.30;;;8.88;;
21503;SDS011;10913;51.992;9.228;2023-04-06T05:31:24;9.85;;;8.40;;
21503;SDS011;10913;51.992;9.228;2023-04-06T05:33:50;10.65;;;9.00;;
21503;SDS011;10913;51.992;9.228;2023-04-06T05:36:15;11.93;;;8.95;;
21503;SDS011;10913;51.992;9.228;2023-04-06T05:38:41;10.20;;;8.90;;
21503;SDS011;10913;51.992;9.228;2023-04-06T05:41:06;10.30;;;8.82;;
21503;SDS011;10913;51.992;9.228;2023-04-06T05:43:32;11.02;;;8.77;;
21503;SDS011;10913;51.992;9.228;2023-04-06T05:45:57;9.30;;;8.40;;
21503;SDS011;10913;51.992;9.228;2023-04-06T05:48:23;9.57;;;8.57;;
21503;SDS011;10913;51.992;9.228;2023-04-06T05:50:48;10.63;;;8.95;;
21503;SDS011;10913;51.992;9.228;2023-04-06T05:53:18;8.52;;;7.65;;
21503;SDS011;10913;51.992;9.228;2023-04-06T05:55:43;11.82;;;8.63;;
21503;SDS011;10913;51.992;9.228;2023-04-06T05:58:09;10.80;;;9.43;;
21503;SDS011;10913;51.992;9.228;2023-04-06T06:00:35;13.55;;;9.68;;
21503;SDS011;10913;51.992;9.228;2023-04-06T06:03:00;11.60;;;9.85;;
21503;SDS011;10913;51.992;9.228;2023-04-06T06:05:29;11.75;;;10.50;;
21503;SDS011;10913;51.992;9.228;2023-04-06T06:07:55;11.68;;;10.07;;
21503;SDS011;10913;51.992;9.228;2023-04-06T06:10:20;10.65;;;9.52;;
21503;SDS011;10913;51.992;9.228;2023-04-06T06:12:46;13.00;;;11.00;;
21503;SDS011;10913;51.992;9.228;2023-04-06T06:15:11;12.15;;;10.23;;
21503;SDS011;10913;51.992;9.228;2023-04-06T06:17:37;10.85;;;9.70;;
21503;SDS011;10913;51.992;9.228;2023-04-06T06:20:04;11.73;;;9.90;;
21503;SDS011;10913;51.992;9.228;2023-04-06T06:22:31;10.27;;;9.15;;
21503;SDS011;10913;51.992;9.228;2023-04-06T06:24:56;10.15;;;9.15;;
21503;SDS011;10913;51.992;9.228;2023-04-06T06:27:21;10.23;;;9.23;;
21503;SDS011;10913;51.992;9.228;2023-04-06T06:29:47;10.50;;;8.88;;
21503;SDS011;10913;51.992;9.228;2023-04-06T06:32:13;9.57;;;8.70;;
21503;SDS011;10913;51.992;9.228;2023-04-06T06:34:39;8.82;;;7.93;;
21503;SDS011;10913;51.992;9.228;2023-04-06T06:37:05;9.20;;;8.27;;
21503;SDS011;10913;51.992;9.228;2023-04-06T06:39:31;11.55;;;8.70;;
21503;SDS011;10913;51.992;9.228;2023-04-06T06:41:56;10.68;;;8.43;;
21503;SDS011;10913;51.992;9.228;2023-04-06T06:44:22;9.57;;;8.57;;
21503;SDS011;10913;51.992;9.228;2023-04-06T06:46:47;10.00;;;9.00;;
21503;SDS011;10913;51.992;9.228;2023-04-06T06:49:13;10.25;;;8.68;;
21503;SDS011;10913;51.992;9.228;2023-04-06T06:51:39;9.85;;;8.68;;
21503;SDS011;10913;51.992;9.228;2023-04-06T06:54:04;10.63;;;7.80;;
21503;SDS011;10913;51.992;9.228;2023-04-06T06:56:30;9.40;;;8.45;;
21503;SDS011;10913;51.992;9.228;2023-04-06T06:58:55;9.65;;;7.78;;
21503;SDS011;10913;51.992;9.228;2023-04-06T07:01:21;8.57;;;6.93;;
21503;SDS011;10913;51.992;9.228;2023-04-06T07:03:46;8.02;;;6.50;;
21503;SDS011;10913;51.992;9.228;2023-04-06T07:06:12;6.90;;;6.18;;
21503;SDS011;10913;51.992;9.228;2023-04-06T07:08:37;6.05;;;5.43;;
21503;SDS011;10913;51.992;9.228;2023-04-06T07:11:02;7.55;;;5.60;;
21503;SDS011;10913;51.992;9.228;2023-04-06T07:13:28;7.60;;;5.85;;
21503;SDS011;10913;51.992;9.228;2023-04-06T07:15:54;6.82;;;5.68;;
21503;SDS011;10913;51.992;9.228;2023-04-06T07:18:19;8.05;;;5.75;;
21503;SDS011;10913;51.992;9.228;2023-04-06T07:20:45;5.93;;;5.18;;
21503;SDS011;10913;51.992;9.228;2023-04-06T07:23:11;6.57;;;5.90;;
21503;SDS011;10913;51.992;9.228;2023-04-06T07:25:36;8.07;;;6.00;;
21503;SDS011;10913;51.992;9.228;2023-04-06T07:28:02;6.95;;;6.25;;
21503;SDS011;10913;51.992;9.228;2023-04-06T07:30:28;7.60;;;5.63;;
21503;SDS011;10913;51.992;9.228;2023-04-06T07:32:54;6.75;;;5.70;;
21503;SDS011;10913;51.992;9.228;2023-04-06T07:35:25;6.20;;;5.60;;
21503;SDS011;10913;51.992;9.228;2023-04-06T07:37:52;7.03;;;6.32;;
21503;SDS011;10913;51.992;9.228;2023-04-06T07:40:17;5.35;;;4.85;;
21503;SDS011;10913;51.992;9.228;2023-04-06T07:42:44;6.15;;;5.03;;
21503;SDS011;10913;51.992;9.228;2023-04-06T07:45:10;5.72;;;5.20;;
21503;SDS011;10913;51.992;9.228;2023-04-06T07:47:36;6.47;;;5.80;;
21503;SDS011;10913;51.992;9.228;2023-04-06T07:50:01;6.80;;;6.15;;
21503;SDS011;10913;51.992;9.228;2023-04-06T07:52:27;6.38;;;5.53;;
21503;SDS011;10913;51.992;9.228;2023-04-06T07:54:52;6.68;;;6.07;;
21503;SDS011;10913;51.992;9.228;2023-04-06T07:57:18;7.15;;;6.10;;
21503;SDS011;10913;51.992;9.228;2023-04-06T07:59:43;6.25;;;5.68;;
21503;SDS011;10913;51.992;9.228;2023-04-06T08:02:09;8.75;;;5.30;;
21503;SDS011;10913;51.992;9.228;2023-04-06T08:04:35;7.13;;;6.35;;
21503;SDS011;10913;51.992;9.228;2023-04-06T08:07:01;7.03;;;6.07;;
21503;SDS011;10913;51.992;9.228;2023-04-06T08:09:26;7.93;;;6.55;;
21503;SDS011;10913;51.992;9.228;2023-04-06T08:11:52;6.80;;;6.20;;
21503;SDS011;10913;51.992;9.228;2023-04-06T08:14:18;6.38;;;5.78;;
21503;SDS011;10913;51.992;9.228;2023-04-06T08:16:43;6.65;;;5.78;;
21503;SDS011;10913;51.992;9.228;2023-04-06T08:19:09;7.32;;;6.63;;
21503;SDS011;10913;51.992;9.228;2023-04-06T08:21:38;8.15;;;6.20;;
21503;SDS011;10913;51.992;9.228;2023-04-06T08:24:05;7.18;;;6.22;;
21503;SDS011;10913;51.992;9.228;2023-04-06T08:26:31;8.35;;;6.65;;
21503;SDS011;10913;51.992;9.228;2023-04-06T08:28:56;7.65;;;6.85;;
21503;SDS011;10913;51.992;9.228;2023-04-06T08:31:22;7.97;;;7.03;;
21503;SDS011;10913;51.992;9.228;2023-04-06T08:33:47;9.07;;;6.80;;
21503;SDS011;10913;51.992;9.228;2023-04-06T08:36:13;7.13;;;6.38;;
21503;SDS011;10913;51.992;9.228;2023-04-06T08:38:40;7.82;;;6.55;;
21503;SDS011;10913;51.992;9.228;2023-04-06T08:41:08;7.75;;;6.30;;
21503;SDS011;10913;51.992;9.228;2023-04-06T08:43:36;8.27;;;6.45;;
21503;SDS011;10913;51.992;9.228;2023-04-06T08:46:11;7.30;;;6.60;;
21503;SDS011;10913;51.992;9.228;2023-04-06T08:48:40;8.25;;;6.50;;
21503;SDS011;10913;51.992;9.228;2023-04-06T08:51:07;7.53;;;6.45;;
21503;SDS011;10913;51.992;9.228;2023-04-06T08:53:33;7.40;;;6.57;;
21503;SDS011;10913;51.992;9.228;2023-04-06T08:55:59;7.28;;;6.40;;
21503;SDS011;10913;51.992;9.228;2023-04-06T08:58:27;7.63;;;6.38;;
21503;SDS011;10913;51.992;9.228;2023-04-06T09:01:02;7.38;;;6.57;;
21503;SDS011;10913;51.992;9.228;2023-04-06T09:03:32;8.50;;;6.75;;
21503;SDS011;10913;51.992;9.228;2023-04-06T09:06:01;9.82;;;7.00;;
21503;SDS011;10913;51.992;9.228;2023-04-06T09:08:29;10.70;;;7.05;;
21503;SDS011;10913;51.992;9.228;2023-04-06T09:10:55;7.50;;;6.57;;
21503;SDS011;10913;51.992;9.228;2023-04-06T09:13:20;9.20;;;7.25;;
21503;SDS011;10913;51.992;9.228;2023-04-06T09:15:46;8.63;;;7.13;;
21503;SDS011;10913;51.992;9.228;2023-04-06T09:18:11;7.25;;;6.53;;
21503;SDS011;10913;51.992;9.228;2023-04-06T09:20:36;8.25;;;6.53;;
21503;SDS011;10913;51.992;9.228;2023-04-06T09:23:02;7.65;;;6.53;;
21503;SDS011;10913;51.992;9.228;2023-04-06T09:25:27;8.13;;;6.68;;
21503;SDS011;10913;51.992;9.228;2023-04-06T09:28:03;7.70;;;6.90;;
21503;SDS011;10913;51.992;9.228;2023-04-06T09:30:29;8.35;;;6.93;;
21503;SDS011;10913;51.992;9.228;2023-04-06T09:32:55;7.65;;;6.75;;
21503;SDS011;10913;51.992;9.228;2023-04-06T09:35:22;7.70;;;6.90;;
21503;SDS011;10913;51.992;9.228;2023-04-06T09:37:49;8.45;;;7.07;;
21503;SDS011;10913;51.992;9.228;2023-04-06T09:40:15;8.27;;;6.90;;
21503;SDS011;10913;51.992;9.228;2023-04-06T09:42:47;9.05;;;7.22;;
21503;SDS011;10913;51.992;9.228;2023-04-06T09:45:16;9.93;;;7.50;;
21503;SDS011;10913;51.992;9.228;2023-04-06T09:47:43;9.70;;;7.60;;
21503;SDS011;10913;51.992;9.228;2023-04-06T09:50:11;9.30;;;7.90;;
21503;SDS011;10913;51.992;9.228;2023-04-06T09:55:05;9.25;;;7.60;;
21503;SDS011;10913;51.992;9.228;2023-04-06T09:57:46;10.65;;;7.85;;
21503;SDS011;10913;51.992;9.228;2023-04-06T10:00:21;8.88;;;7.55;;
21503;SDS011;10913;51.992;9.228;2023-04-06T10:05:42;8.40;;;7.50;;
21503;SDS011;10913;51.992;9.228;2023-04-06T10:08:12;8.60;;;7.32;;
21503;SDS011;10913;51.992;9.228;2023-04-06T10:10:39;9.85;;;7.57;;
21503;SDS011;10913;51.992;9.228;2023-04-06T10:13:05;10.45;;;7.80;;
21503;SDS011;10913;51.992;9.228;2023-04-06T10:15:31;10.10;;;8.00;;
21503;SDS011;10913;51.992;9.228;2023-04-06T10:17:57;11.13;;;8.75;;
21503;SDS011;10913;51.992;9.228;2023-04-06T10:20:27;9.88;;;8.00;;
21503;SDS011;10913;51.992;9.228;2023-04-06T10:25:55;12.13;;;8.65;;
21503;SDS011;10913;51.992;9.228;2023-04-06T10:28:23;9.88;;;8.18;;
21503;SDS011;10913;51.992;9.228;2023-04-06T10:30:49;10.88;;;8.57;;
21503;SDS011;10913;51.992;9.228;2023-04-06T10:33:22;12.75;;;9.25;;
21503;SDS011;10913;51.992;9.228;2023-04-06T10:35:48;10.70;;;8.93;;
21503;SDS011;10913;51.992;9.228;2023-04-06T10:38:13;11.38;;;9.10;;
21503;SDS011;10913;51.992;9.228;2023-04-06T10:40:40;10.70;;;8.98;;
21503;SDS011;10913;51.992;9.228;2023-04-06T10:43:18;10.27;;;8.52;;
21503;SDS011;10913;51.992;9.228;2023-04-06T10:45:52;12.43;;;9.45;;
21503;SDS011;10913;51.992;9.228;2023-04-06T10:50:49;10.13;;;9.05;;
21503;SDS011;10913;51.992;9.228;2023-04-06T10:53:25;12.02;;;9.88;;
21503;SDS011;10913;51.992;9.228;2023-04-06T10:55:53;14.00;;;9.60;;
21503;SDS011;10913;51.992;9.228;2023-04-06T10:58:20;12.75;;;9.68;;
21503;SDS011;10913;51.992;9.228;2023-04-06T11:00:49;11.90;;;9.07;;
21503;SDS011;10913;51.992;9.228;2023-04-06T11:03:15;11.55;;;9.30;;
21503;SDS011;10913;51.992;9.228;2023-04-06T11:05:45;10.27;;;9.13;;
21503;SDS011;10913;51.992;9.228;2023-04-06T11:08:27;14.15;;;10.30;;
21503;SDS011;10913;51.992;9.228;2023-04-06T11:11:07;10.77;;;9.43;;
21503;SDS011;10913;51.992;9.228;2023-04-06T11:16:26;13.23;;;9.65;;
21503;SDS011;10913;51.992;9.228;2023-04-06T11:19:00;11.43;;;9.35;;
21503;SDS011;10913;51.992;9.228;2023-04-06T11:24:11;11.85;;;9.82;;
21503;SDS011;10913;51.992;9.228;2023-04-06T11:26:42;11.98;;;10.07;;
21503;SDS011;10913;51.992;9.228;2023-04-06T11:29:15;14.23;;;9.95;;
21503;SDS011;10913;51.992;9.228;2023-04-06T11:31:45;11.10;;;9.57;;
21503;SDS011;10913;51.992;9.228;2023-04-06T11:34:12;13.35;;;10.35;;
21503;SDS011;10913;51.992;9.228;2023-04-06T11:36:40;11.60;;;9.45;;
21503;SDS011;10913;51.992;9.228;2023-04-06T11:39:06;13.30;;;10.00;;
21503;SDS011;10913;51.992;9.228;2023-04-06T11:41:32;13.50;;;10.00;;
21503;SDS011;10913;51.992;9.228;2023-04-06T11:43:57;12.23;;;9.77;;
21503;SDS011;10913;51.992;9.228;2023-04-06T11:46:27;12.55;;;10.27;;
21503;SDS011;10913;51.992;9.228;2023-04-06T11:48:53;12.55;;;10.43;;
21503;SDS011;10913;51.992;9.228;2023-04-06T11:51:23;12.60;;;9.45;;
21503;SDS011;10913;51.992;9.228;2023-04-06T11:53:49;12.85;;;10.35;;
21503;SDS011;10913;51.992;9.228;2023-04-06T11:56:27;13.60;;;10.80;;
21503;SDS011;10913;51.992;9.228;2023-04-06T11:58:55;12.13;;;9.68;;
21503;SDS011;10913;51.992;9.228;2023-04-06T12:01:21;12.77;;;10.50;;
21503;SDS011;10913;51.992;9.228;2023-04-06T12:03:47;13.93;;;9.90;;
21503;SDS011;10913;51.992;9.228;2023-04-06T12:06:14;12.68;;;10.15;;
21503;SDS011;10913;51.992;9.228;2023-04-06T12:08:40;15.07;;;10.68;;
21503;SDS011;10913;51.992;9.228;2023-04-06T12:11:05;11.05;;;9.73;;
21503;SDS011;10913;51.992;9.228;2023-04-06T12:13:31;11.77;;;10.30;;
21503;SDS011;10913;51.992;9.228;2023-04-06T12:15:56;13.23;;;10.80;;
21503;SDS011;10913;51.992;9.228;2023-04-06T12:18:22;13.10;;;11.02;;
21503;SDS011;10913;51.992;9.228;2023-04-06T12:20:47;12.57;;;10.85;;
21503;SDS011;10913;51.992;9.228;2023-04-06T12:23:12;13.50;;;9.85;;
21503;SDS011;10913;51.992;9.228;2023-04-06T12:25:42;14.18;;;10.82;;
21503;SDS011;10913;51.992;9.228;2023-04-06T12:28:07;15.13;;;10.27;;
21503;SDS011;10913;51.992;9.228;2023-04-06T12:30:34;11.68;;;9.73;;
21503;SDS011;10913;51.992;9.228;2023-04-06T12:33:00;11.77;;;10.05;;
21503;SDS011;10913;51.992;9.228;2023-04-06T12:35:25;12.85;;;10.30;;
21503;SDS011;10913;51.992;9.228;2023-04-06T12:37:51;13.30;;;9.90;;
21503;SDS011;10913;51.992;9.228;2023-04-06T12:40:16;13.73;;;10.60;;
21503;SDS011;10913;51.992;9.228;2023-04-06T12:42:41;12.45;;;10.48;;
21503;SDS011;10913;51.992;9.228;2023-04-06T12:45:07;13.60;;;10.73;;
21503;SDS011;10913;51.992;9.228;2023-04-06T12:47:34;11.15;;;9.13;;
21503;SDS011;10913;51.992;9.228;2023-04-06T12:50:02;12.38;;;10.07;;
21503;SDS011;10913;51.992;9.228;2023-04-06T12:52:27;13.35;;;10.60;;
21503;SDS011;10913;51.992;9.228;2023-04-06T12:54:55;13.57;;;10.48;;
21503;SDS011;10913;51.992;9.228;2023-04-06T12:57:21;12.30;;;10.30;;
21503;SDS011;10913;51.992;9.228;2023-04-06T12:59:46;12.15;;;9.98;;
21503;SDS011;10913;51.992;9.228;2023-04-06T13:02:12;15.68;;;11.18;;
21503;SDS011;10913;51.992;9.228;2023-04-06T13:04:37;17.23;;;12.70;;
21503;SDS011;10913;51.992;9.228;2023-04-06T13:07:03;14.52;;;11.70;;
21503;SDS011;10913;51.992;9.228;2023-04-06T13:09:28;14.82;;;11.80;;
21503;SDS011;10913;51.992;9.228;2023-04-06T13:11:54;18.17;;;12.52;;
21503;SDS011;10913;51.992;9.228;2023-04-06T13:14:20;17.10;;;11.80;;
21503;SDS011;10913;51.992;9.228;2023-04-06T13:16:45;15.82;;;12.13;;
21503;SDS011;10913;51.992;9.228;2023-04-06T13:19:11;13.77;;;11.45;;
21503;SDS011;10913;51.992;9.228;2023-04-06T13:21:37;14.65;;;11.68;;
21503;SDS011;10913;51.992;9.228;2023-04-06T13:24:02;15.55;;;12.20;;
21503;SDS011;10913;51.992;9.228;2023-04-06T13:26:29;17.20;;;12.82;;
21503;SDS011;10913;51.992;9.228;2023-04-06T13:28:55;14.98;;;12.13;;
21503;SDS011;10913;51.992;9.228;2023-04-06T13:31:21;15.38;;;11.70;;
21503;SDS011;10913;51.992;9.228;2023-04-06T13:33:47;16.05;;;12.48;;
21503;SDS011;10913;51.992;9.228;2023-04-06T13:36:12;14.63;;;11.48;;
21503;SDS011;10913;51.992;9.228;2023-04-06T13:38:38;14.07;;;11.35;;
21503;SDS011;10913;51.992;9.228;2023-04-06T13:41:06;16.05;;;11.80;;
21503;SDS011;10913;51.992;9.228;2023-04-06T13:43:32;15.23;;;11.43;;
21503;SDS011;10913;51.992;9.228;2023-04-06T13:45:57;13.20;;;10.73;;
21503;SDS011;10913;51.992;9.228;2023-04-06T13:48:25;15.68;;;11.77;;
21503;SDS011;10913;51.992;9.228;2023-04-06T13:50:51;14.90;;;11.25;;
21503;SDS011;10913;51.992;9.228;2023-04-06T13:53:17;15.10;;;11.35;;
21503;SDS011;10913;51.992;9.228;2023-04-06T13:55:42;14.90;;;11.45;;
21503;SDS011;10913;51.992;9.228;2023-04-06T13:58:08;14.18;;;11.48;;
21503;SDS011;10913;51.992;9.228;2023-04-06T14:00:34;12.88;;;11.00;;
21503;SDS011;10913;51.992;9.228;2023-04-06T14:03:00;15.82;;;11.50;;
21503;SDS011;10913;51.992;9.228;2023-04-06T14:05:25;15.38;;;11.65;;
21503;SDS011;10913;51.992;9.228;2023-04-06T14:07:52;18.20;;;12.30;;
21503;SDS011;10913;51.992;9.228;2023-04-06T14:10:19;16.20;;;12.07;;
21503;SDS011;10913;51.992;9.228;2023-04-06T14:12:47;17.25;;;12.38;;
21503;SDS011;10913;51.992;9.228;2023-04-06T14:15:13;15.95;;;12.30;;
21503;SDS011;10913;51.992;9.228;2023-04-06T14:17:38;13.60;;;11.75;;
21503;SDS011;10913;51.992;9.228;2023-04-06T14:20:07;16.50;;;12.80;;
21503;SDS011;10913;51.992;9.228;2023-04-06T14:22:33;14.68;;;11.43;;
21503;SDS011;10913;51.992;9.228;2023-04-06T14:24:58;16.02;;;12.18;;
21503;SDS011;10913;51.992;9.228;2023-04-06T14:27:24;15.13;;;11.45;;
21503;SDS011;10913;51.992;9.228;2023-04-06T14:29:50;16.33;;;12.50;;
21503;SDS011;10913;51.992;9.228;2023-04-06T14:32:15;16.38;;;11.90;;
21503;SDS011;10913;51.992;9.228;2023-04-06T14:34:41;16.67;;;13.07;;
21503;SDS011;10913;51.992;9.228;2023-04-06T14:37:07;15.13;;;12.23;;
21503;SDS011;10913;51.992;9.228;2023-04-06T14:39:32;16.27;;;12.43;;
21503;SDS011;10913;51.992;9.228;2023-04-06T14:41:58;15.52;;;11.90;;
21503;SDS011;10913;51.992;9.228;2023-04-06T14:44:23;16.77;;;12.50;;
21503;SDS011;10913;51.992;9.228;2023-04-06T14:46:48;17.40;;;12.15;;
21503;SDS011;10913;51.992;9.228;2023-04-06T14:49:15;16.55;;;12.10;;